createdAt,value
2019-05-25T00:01:55.911Z,67.70
2019-05-25T00:04:17.195Z,67.00
2019-05-25T00:06:38.407Z,67.00
2019-05-25T00:08:59.691Z,66.90
2019-05-25T00:11:20.890Z,67.60
2019-05-25T00:13:42.201Z,66.80
2019-05-25T00:16:03.655Z,66.00
2019-05-25T00:18:24.866Z,67.00
2019-05-25T00:20:46.085Z,66.60
2019-05-25T00:23:07.276Z,67.10
2019-05-25T00:25:48.348Z,67.40
2019-05-25T00:28:09.586Z,67.70
2019-05-25T00:30:30.913Z,67.90
2019-05-25T00:32:52.236Z,67.30
2019-05-25T00:35:13.786Z,68.80
2019-05-25T00:37:47.944Z,67.80
2019-05-25T00:40:30.964Z,69.30
2019-05-25T00:42:52.175Z,69.60
2019-05-25T00:45:13.656Z,69.10
2019-05-25T00:47:34.994Z,70.00
2019-05-25T00:49:56.531Z,69.40
2019-05-25T00:52:18.107Z,69.70
2019-05-25T00:54:40.620Z,70.80
2019-05-25T00:57:01.987Z,71.10
2019-05-25T00:59:23.253Z,69.00
2019-05-25T01:01:44.490Z,70.90
2019-05-25T01:04:05.805Z,70.90
2019-05-25T01:06:27.038Z,69.90
2019-05-25T01:08:48.275Z,69.20
2019-05-25T01:11:10.697Z,69.20
2019-05-25T01:13:32.218Z,70.60
2019-05-25T01:15:53.439Z,70.30
2019-05-25T01:18:14.673Z,70.90
2019-05-25T01:20:35.890Z,70.60
2019-05-25T01:22:57.146Z,70.30
2019-05-25T01:25:18.549Z,70.50
2019-05-25T01:27:39.770Z,71.40
2019-05-25T01:30:01.332Z,70.30
2019-05-25T01:32:24.674Z,72.00
2019-05-25T01:34:45.896Z,69.90
2019-05-25T01:37:07.089Z,69.70
2019-05-25T01:39:28.306Z,70.30
2019-05-25T01:41:49.776Z,72.10
2019-05-25T01:44:11.290Z,70.60
2019-05-25T01:46:52.382Z,72.80
2019-05-25T01:49:13.852Z,73.10
2019-05-25T01:51:35.143Z,72.10
2019-05-25T01:53:56.455Z,71.20
2019-05-25T01:56:17.637Z,74.10
2019-05-25T01:58:40.058Z,72.40
2019-05-25T02:01:01.298Z,72.50
2019-05-25T02:03:22.515Z,72.30
2019-05-25T02:05:43.730Z,73.70
2019-05-25T02:08:05.268Z,73.50
2019-05-25T02:10:26.475Z,73.50
2019-05-25T02:12:47.681Z,73.30
2019-05-25T02:15:09.692Z,73.30
2019-05-25T02:17:30.906Z,73.30
2019-05-25T02:19:52.218Z,74.50
2019-05-25T02:22:13.479Z,72.60
2019-05-25T02:24:34.778Z,73.00
2019-05-25T02:26:55.991Z,75.00
2019-05-25T02:29:18.331Z,73.80
2019-05-25T02:31:39.555Z,73.40
2019-05-25T02:34:00.827Z,73.60
2019-05-25T02:36:23.156Z,72.50
2019-05-25T02:38:44.375Z,73.70
2019-05-25T02:41:06.708Z,73.20
2019-05-25T02:43:29.245Z,73.40
2019-05-25T02:45:50.967Z,75.00
2019-05-25T02:48:12.170Z,74.90
2019-05-25T02:50:46.759Z,75.30
2019-05-25T02:53:08.049Z,75.20
2019-05-25T02:55:34.536Z,74.10
2019-05-25T02:57:52.479Z,74.60
2019-05-25T03:00:14.506Z,74.60
2019-05-25T03:02:35.897Z,74.50
2019-05-25T03:04:57.324Z,74.80
2019-05-25T03:07:19.609Z,74.90
2019-05-25T03:09:41.525Z,75.20
2019-05-25T03:12:02.806Z,74.90
2019-05-25T03:14:24.043Z,74.90
2019-05-25T03:16:45.285Z,74.70
2019-05-25T03:19:06.584Z,77.20
2019-05-25T03:21:27.813Z,75.50
2019-05-25T03:23:49.016Z,76.40
2019-05-25T03:26:10.241Z,75.40
2019-05-25T03:28:32.435Z,75.30
2019-05-25T03:30:53.649Z,75.40
2019-05-25T03:33:14.995Z,76.00
2019-05-25T03:35:36.237Z,78.30
2019-05-25T03:37:57.509Z,76.20
2019-05-25T03:40:20.091Z,75.60
2019-05-25T03:42:41.424Z,75.30
2019-05-25T03:45:06.679Z,76.90
2019-05-25T03:47:27.977Z,77.40
2019-05-25T03:49:49.377Z,77.90
2019-05-25T03:52:10.625Z,76.90
2019-05-25T03:54:31.970Z,78.00
2019-05-25T03:56:53.211Z,77.80
2019-05-25T03:59:14.417Z,78.20
2019-05-25T04:01:35.703Z,78.30
2019-05-25T04:03:57.482Z,78.30
2019-05-25T04:06:18.703Z,76.80
2019-05-25T04:08:39.903Z,77.70
2019-05-25T04:11:01.583Z,78.20
2019-05-25T04:13:22.767Z,77.70
2019-05-25T04:15:44.021Z,77.90
2019-05-25T04:18:05.345Z,77.80
2019-05-25T04:20:28.909Z,78.90
2019-05-25T04:22:50.337Z,78.00
2019-05-25T04:25:11.985Z,78.00
2019-05-25T04:27:33.333Z,77.40
2019-05-25T04:29:56.715Z,78.60
2019-05-25T04:32:18.238Z,79.10
2019-05-25T04:34:39.445Z,78.40
2019-05-25T04:37:00.866Z,79.10
2019-05-25T04:39:22.075Z,79.20
2019-05-25T04:41:43.496Z,78.00
2019-05-25T04:44:04.838Z,78.60
2019-05-25T04:46:26.088Z,77.80
2019-05-25T04:48:47.439Z,77.60
2019-05-25T04:51:09.957Z,79.30
2019-05-25T04:53:31.166Z,78.90
2019-05-25T04:55:52.371Z,77.60
2019-05-25T04:58:13.691Z,78.20
2019-05-25T05:00:34.900Z,77.70
2019-05-25T05:02:56.201Z,77.30
2019-05-25T05:05:17.426Z,78.70
2019-05-25T05:07:38.620Z,78.20
2019-05-25T05:10:03.091Z,78.10
2019-05-25T05:12:23.052Z,78.70
2019-05-25T05:14:44.439Z,80.20
2019-05-25T05:17:05.735Z,79.90
2019-05-25T05:19:26.961Z,79.70
2019-05-25T05:21:48.165Z,79.10
2019-05-25T05:24:09.367Z,79.60
2019-05-25T05:26:30.565Z,79.90
2019-05-25T05:28:51.800Z,79.70
2019-05-25T05:31:23.208Z,79.90
2019-05-25T05:33:36.464Z,80.10
2019-05-25T05:35:58.689Z,79.70
2019-05-25T05:38:20.609Z,79.50
2019-05-25T05:40:42.226Z,80.00
2019-05-25T05:43:07.241Z,79.20
2019-05-25T05:45:29.851Z,79.30
2019-05-25T05:47:51.151Z,79.40
2019-05-25T05:50:12.734Z,79.00
2019-05-25T05:52:37.617Z,79.20
2019-05-25T05:55:01.452Z,79.00
2019-05-25T05:57:22.658Z,78.20
2019-05-25T05:59:44.114Z,78.10
2019-05-25T06:02:05.426Z,77.90
2019-05-25T06:04:26.626Z,77.50
2019-05-25T06:06:47.911Z,76.70
2019-05-25T06:09:09.207Z,76.40
2019-05-25T06:11:30.397Z,75.80
2019-05-25T06:13:51.905Z,74.00
2019-05-25T06:16:13.128Z,72.90
2019-05-25T06:18:34.594Z,71.90
2019-05-25T06:20:55.818Z,72.00
2019-05-25T06:23:17.056Z,72.70
2019-05-25T06:25:38.384Z,72.10
2019-05-25T06:27:59.654Z,70.80
2019-05-25T06:30:21.174Z,70.20
2019-05-25T06:32:42.495Z,70.50
2019-05-25T06:35:07.314Z,70.20
2019-05-25T06:37:28.533Z,70.40
2019-05-25T06:39:50.087Z,70.00
2019-05-25T06:42:11.368Z,68.70
2019-05-25T06:44:32.610Z,66.20
2019-05-25T06:46:53.795Z,66.10
2019-05-25T06:49:15.014Z,65.50
2019-05-25T06:51:36.275Z,67.00
2019-05-25T06:53:57.606Z,66.60
2019-05-25T06:56:18.898Z,65.20
2019-05-25T06:58:41.525Z,66.70
2019-05-25T07:01:02.872Z,65.60
2019-05-25T07:03:24.066Z,64.70
2019-05-25T07:05:45.382Z,64.70
2019-05-25T07:08:07.223Z,63.90
2019-05-25T07:10:28.458Z,64.80
2019-05-25T07:12:49.672Z,64.20
2019-05-25T07:15:11.891Z,64.60
2019-05-25T07:17:33.341Z,63.80
2019-05-25T07:19:54.540Z,63.70
2019-05-25T07:22:15.741Z,62.80
2019-05-25T07:24:36.974Z,63.40
2019-05-25T07:26:59.312Z,63.30
2019-05-25T07:29:20.684Z,63.50
2019-05-25T07:31:41.899Z,64.40
2019-05-25T07:34:03.299Z,64.40
2019-05-25T07:36:24.498Z,63.70
2019-05-25T07:38:45.986Z,64.30
2019-05-25T07:41:07.189Z,64.20
2019-05-25T07:43:28.393Z,64.10
2019-05-25T07:45:52.067Z,63.30
2019-05-25T07:48:13.384Z,62.00
2019-05-25T07:50:34.695Z,63.10
2019-05-25T07:52:55.893Z,63.70
2019-05-25T07:55:17.576Z,62.00
2019-05-25T07:57:38.922Z,62.30
2019-05-25T08:00:00.457Z,62.50
2019-05-25T08:02:21.751Z,62.30
2019-05-25T08:04:45.027Z,62.60
2019-05-25T08:07:06.899Z,61.20
2019-05-25T08:09:31.284Z,62.60
2019-05-25T08:11:54.528Z,62.10
2019-05-25T08:14:17.574Z,60.80
2019-05-25T08:16:39.072Z,60.90
2019-05-25T08:19:00.413Z,60.40
2019-05-25T08:21:26.332Z,60.60
2019-05-25T08:23:52.059Z,60.30
2019-05-25T08:26:11.241Z,61.10
2019-05-25T08:28:37.418Z,59.10
2019-05-25T08:31:07.362Z,59.00
2019-05-25T08:33:29.055Z,60.10
2019-05-25T08:35:53.242Z,60.00
2019-05-25T08:38:17.602Z,60.00
2019-05-25T08:40:52.071Z,57.70
2019-05-25T08:43:13.344Z,57.30
2019-05-25T08:45:34.549Z,55.60
2019-05-25T08:47:57.306Z,57.20
2019-05-25T08:50:19.291Z,57.50
2019-05-25T08:52:40.503Z,58.40
2019-05-25T08:55:03.434Z,56.40
2019-05-25T08:57:25.292Z,54.50
2019-05-25T08:59:46.766Z,54.80
2019-05-25T09:02:07.968Z,55.40
2019-05-25T09:04:30.267Z,55.70
2019-05-25T09:06:51.490Z,55.40
2019-05-25T09:09:12.690Z,54.20
2019-05-25T09:11:33.967Z,55.10
2019-05-25T09:13:55.409Z,55.10
2019-05-25T09:16:16.986Z,54.20
2019-05-25T09:18:58.282Z,54.10
2019-05-25T09:21:20.808Z,54.60
2019-05-25T09:23:42.399Z,54.10
2019-05-25T09:26:04.020Z,52.70
2019-05-25T09:28:25.609Z,51.80
2019-05-25T09:30:46.864Z,52.40
2019-05-25T09:33:08.237Z,53.20
2019-05-25T09:35:29.479Z,53.10
2019-05-25T09:37:50.668Z,53.60
2019-05-25T09:40:12.225Z,53.40
2019-05-25T09:42:34.687Z,53.50
2019-05-25T09:44:55.998Z,54.00
2019-05-25T09:47:17.271Z,53.70
2019-05-25T09:49:38.502Z,53.00
2019-05-25T09:51:59.767Z,53.50
2019-05-25T09:54:20.957Z,51.90
2019-05-25T09:56:42.726Z,51.90
2019-05-25T09:59:19.722Z,52.00
2019-05-25T10:01:35.182Z,51.30
2019-05-25T10:03:56.863Z,51.70
2019-05-25T10:06:18.308Z,51.30
2019-05-25T10:08:40.216Z,49.90
2019-05-25T10:11:01.804Z,49.80
2019-05-25T10:13:23.311Z,49.40
2019-05-25T10:15:46.518Z,50.50
2019-05-25T10:18:07.871Z,50.00
2019-05-25T10:20:29.122Z,50.80
2019-05-25T10:22:50.397Z,49.80
2019-05-25T10:25:12.600Z,49.80
2019-05-25T10:27:34.403Z,49.90
2019-05-25T10:29:55.868Z,51.10
2019-05-25T10:32:17.182Z,49.50
2019-05-25T10:34:38.461Z,48.70
2019-05-25T10:37:01.247Z,49.40
2019-05-25T10:39:22.553Z,49.70
2019-05-25T10:41:43.788Z,48.20
2019-05-25T10:44:05.237Z,49.50
2019-05-25T10:46:27.773Z,48.10
2019-05-25T10:48:49.091Z,47.50
2019-05-25T10:51:10.569Z,48.30
2019-05-25T10:53:31.927Z,47.60
2019-05-25T10:55:53.419Z,48.30
2019-05-25T10:58:14.825Z,46.00
2019-05-25T11:00:36.078Z,47.90
2019-05-25T11:02:57.387Z,48.20
2019-05-25T11:05:19.244Z,48.30
2019-05-25T11:07:40.463Z,47.30
2019-05-25T11:10:06.417Z,46.40
2019-05-25T11:12:28.093Z,47.10
2019-05-25T11:14:49.333Z,47.20
2019-05-25T11:17:10.617Z,45.90
2019-05-25T11:19:31.826Z,45.60
2019-05-25T11:21:53.224Z,46.20
2019-05-25T11:24:14.555Z,45.80
2019-05-25T11:26:36.143Z,46.50
2019-05-25T11:28:57.458Z,46.20
2019-05-25T11:31:18.804Z,46.00
2019-05-25T11:33:40.197Z,46.10
2019-05-25T11:36:01.702Z,47.20
2019-05-25T11:38:23.182Z,45.90
2019-05-25T11:40:44.496Z,46.60
2019-05-25T11:43:05.765Z,47.00
2019-05-25T11:45:27.190Z,45.50
2019-05-25T11:47:48.426Z,46.10
2019-05-25T11:50:10.231Z,46.70
2019-05-25T11:52:31.934Z,45.00
2019-05-25T11:54:53.146Z,46.20
2019-05-25T11:57:14.598Z,45.90
2019-05-25T11:59:36.004Z,45.00
2019-05-25T12:01:57.315Z,45.40
2019-05-25T12:04:18.600Z,46.20
2019-05-25T12:06:39.829Z,45.20
2019-05-25T12:09:01.042Z,46.00
2019-05-25T12:11:22.286Z,44.60
2019-05-25T12:13:43.498Z,43.50
2019-05-25T12:16:04.741Z,44.20
2019-05-25T12:18:25.929Z,43.40
2019-05-25T12:20:47.122Z,43.90
2019-05-25T12:23:08.646Z,44.20
2019-05-25T12:25:30.075Z,44.20
2019-05-25T12:27:51.644Z,44.60
2019-05-25T12:30:15.227Z,45.40
2019-05-25T12:32:36.543Z,44.80
2019-05-25T12:34:57.732Z,45.20
2019-05-25T12:37:18.981Z,46.50
2019-05-25T12:39:40.442Z,48.30
2019-05-25T12:42:02.125Z,49.80
2019-05-25T12:44:23.358Z,50.40
2019-05-25T12:46:44.927Z,50.90
2019-05-25T12:49:08.074Z,51.80
2019-05-25T12:51:29.289Z,53.40
2019-05-25T12:53:50.486Z,55.30
2019-05-25T12:56:11.822Z,56.10
2019-05-25T12:58:33.017Z,56.70
2019-05-25T13:00:56.289Z,58.30
2019-05-25T13:03:18.224Z,57.90
2019-05-25T13:05:39.801Z,59.00
2019-05-25T13:08:01.026Z,59.90
2019-05-25T13:10:22.495Z,60.70
2019-05-25T13:12:43.863Z,59.30
2019-05-25T13:15:05.683Z,59.60
2019-05-25T13:17:26.912Z,59.80
2019-05-25T13:19:48.114Z,60.40
2019-05-25T13:22:09.354Z,61.70
2019-05-25T13:24:30.637Z,61.70
2019-05-25T13:26:51.878Z,61.80
2019-05-25T13:29:13.219Z,63.10
2019-05-25T13:31:37.338Z,61.70
2019-05-25T13:33:58.855Z,63.00
2019-05-25T13:36:23.374Z,65.20
2019-05-25T13:38:44.895Z,65.40
2019-05-25T13:41:07.268Z,65.70
2019-05-25T13:43:28.874Z,65.10
2019-05-25T13:45:50.546Z,65.00
2019-05-25T13:48:12.263Z,64.90
2019-05-25T13:50:33.792Z,64.80
2019-05-25T13:52:55.126Z,65.40
2019-05-25T13:55:16.542Z,65.30
2019-05-25T13:57:37.920Z,64.90
2019-05-25T13:59:59.530Z,67.00
2019-05-25T14:02:20.933Z,66.70
2019-05-25T14:04:42.145Z,66.90
2019-05-25T14:07:03.605Z,65.30
2019-05-25T14:09:24.942Z,65.50
2019-05-25T14:11:46.195Z,64.60
2019-05-25T14:14:07.783Z,65.70
2019-05-25T14:16:29.274Z,65.70
2019-05-25T14:18:50.772Z,66.40
2019-05-25T14:21:12.268Z,67.00
2019-05-25T14:23:33.887Z,67.20
2019-05-25T14:25:55.165Z,63.50
2019-05-25T14:28:16.531Z,63.00
2019-05-25T14:30:37.781Z,61.30
2019-05-25T14:32:59.154Z,58.40
2019-05-25T14:35:20.362Z,58.10
2019-05-25T14:37:41.598Z,58.30
2019-05-25T14:40:11.067Z,57.70
2019-05-25T14:42:30.975Z,56.70
2019-05-25T14:44:52.268Z,55.80
2019-05-25T14:47:14.716Z,55.40
2019-05-25T14:49:36.092Z,56.30
2019-05-25T14:51:57.532Z,55.30
2019-05-25T14:54:18.790Z,56.30
2019-05-25T14:56:40.087Z,56.60
2019-05-25T14:59:01.316Z,56.60
2019-05-25T15:01:22.525Z,57.00
2019-05-25T15:03:43.753Z,57.00
2019-05-25T15:06:06.075Z,54.70
2019-05-25T15:08:27.362Z,54.20
2019-05-25T15:10:48.672Z,55.20
2019-05-25T15:13:09.957Z,54.90
2019-05-25T15:15:31.495Z,54.90
2019-05-25T15:17:52.958Z,54.90
2019-05-25T15:20:16.413Z,53.30
2019-05-25T15:22:37.898Z,53.40
2019-05-25T15:24:59.168Z,52.90
2019-05-25T15:27:20.382Z,53.10
2019-05-25T15:29:42.878Z,53.00
2019-05-25T15:32:18.739Z,52.40
2019-05-25T15:34:27.309Z,53.30
2019-05-25T15:36:48.551Z,52.50
2019-05-25T15:39:09.769Z,51.60
2019-05-25T15:41:31.013Z,52.30
2019-05-25T15:44:05.443Z,52.70
2019-05-25T15:46:26.830Z,52.70
2019-05-25T15:48:48.117Z,52.60
2019-05-25T15:51:09.358Z,52.80
2019-05-25T15:53:30.580Z,52.50
2019-05-25T15:55:51.862Z,52.60
2019-05-25T15:58:13.161Z,51.90
2019-05-25T16:00:48.877Z,52.60
2019-05-25T16:03:11.351Z,52.60
2019-05-25T16:05:32.564Z,52.50
2019-05-25T16:07:53.985Z,52.80
2019-05-25T16:10:15.676Z,52.60
2019-05-25T16:12:37.034Z,52.70
2019-05-25T16:14:58.526Z,52.80
2019-05-25T16:17:19.922Z,52.70
2019-05-25T16:19:41.521Z,52.80
2019-05-25T16:22:03.004Z,52.30
2019-05-25T16:24:24.437Z,51.40
2019-05-25T16:26:46.879Z,51.70
2019-05-25T16:29:08.634Z,52.20
2019-05-25T16:31:30.208Z,52.70
2019-05-25T16:33:51.551Z,53.20
2019-05-25T16:36:12.817Z,53.30
2019-05-25T16:38:34.151Z,53.70
2019-05-25T16:40:55.405Z,53.70
2019-05-25T16:43:17.135Z,53.90
2019-05-25T16:45:38.718Z,54.10
2019-05-25T16:47:59.923Z,53.60
2019-05-25T16:50:21.276Z,52.90
2019-05-25T16:52:42.641Z,52.40
2019-05-25T16:55:05.285Z,52.50
2019-05-25T16:57:26.627Z,52.20
2019-05-25T16:59:47.912Z,53.10
2019-05-25T17:02:10.497Z,53.20
2019-05-25T17:04:32.895Z,53.20
2019-05-25T17:06:54.227Z,52.80
2019-05-25T17:09:15.514Z,52.40
2019-05-25T17:11:36.854Z,52.50
2019-05-25T17:13:58.150Z,52.30
2019-05-25T17:16:19.424Z,52.30
2019-05-25T17:18:40.654Z,52.40
2019-05-25T17:21:02.383Z,52.90
2019-05-25T17:23:23.620Z,53.30
2019-05-25T17:25:44.853Z,53.90
2019-05-25T17:28:06.327Z,54.00
2019-05-25T17:30:37.563Z,54.10
2019-05-25T17:32:58.843Z,54.60
2019-05-25T17:35:20.149Z,54.40
2019-05-25T17:37:41.618Z,54.60
2019-05-25T17:40:04.733Z,55.20
2019-05-25T17:42:26.880Z,55.10
2019-05-25T17:44:48.466Z,54.80
2019-05-25T17:47:09.682Z,55.50
2019-05-25T17:49:30.943Z,55.40
2019-05-25T17:51:52.153Z,55.40
2019-05-25T17:54:13.639Z,55.80
2019-05-25T17:56:35.084Z,55.70
2019-05-25T17:58:57.375Z,56.70
2019-05-25T18:01:18.604Z,56.70
2019-05-25T18:03:40.033Z,56.60
2019-05-25T18:06:02.442Z,56.90
2019-05-25T18:08:23.878Z,57.90
2019-05-25T18:10:54.237Z,57.20
2019-05-25T18:13:08.555Z,58.00
2019-05-25T18:15:29.899Z,57.80
2019-05-25T18:17:51.151Z,58.10
2019-05-25T18:20:13.034Z,57.60
2019-05-25T18:22:34.394Z,58.20
2019-05-25T18:24:55.638Z,57.90
2019-05-25T18:27:16.906Z,58.40
2019-05-25T18:29:38.551Z,57.90
2019-05-25T18:32:02.314Z,58.60
2019-05-25T18:34:23.627Z,58.50
2019-05-25T18:36:44.863Z,58.60
2019-05-25T18:39:06.257Z,59.50
2019-05-25T18:41:27.460Z,58.50
2019-05-25T18:43:48.724Z,59.10
2019-05-25T18:46:09.930Z,59.20
2019-05-25T18:48:34.408Z,58.90
2019-05-25T18:50:54.245Z,59.10
2019-05-25T18:53:15.579Z,59.50
2019-05-25T18:55:36.878Z,59.40
2019-05-25T18:57:58.084Z,59.50
2019-05-25T19:00:20.088Z,59.40
2019-05-25T19:02:41.292Z,59.30
2019-05-25T19:05:04.676Z,59.80
2019-05-25T19:07:26.533Z,59.60
2019-05-25T19:09:48.581Z,59.40
2019-05-25T19:12:10.880Z,59.60
2019-05-25T19:14:36.062Z,59.80
2019-05-25T19:16:59.339Z,59.80
2019-05-25T19:19:20.563Z,60.20
2019-05-25T19:21:41.873Z,60.50
2019-05-25T19:24:03.305Z,61.20
2019-05-25T19:26:24.853Z,60.90
2019-05-25T19:28:46.220Z,60.80
2019-05-25T19:31:07.577Z,61.70
2019-05-25T19:33:28.985Z,62.40
2019-05-25T19:35:54.414Z,61.50
2019-05-25T19:38:17.063Z,61.50
2019-05-25T19:40:38.377Z,61.90
2019-05-25T19:42:59.619Z,62.40
2019-05-25T19:45:21.251Z,62.40
2019-05-25T19:47:42.553Z,62.80
2019-05-25T19:50:16.721Z,62.30
2019-05-25T19:52:44.140Z,62.20
2019-05-25T19:55:06.230Z,62.50
2019-05-25T19:57:27.430Z,62.90
2019-05-25T19:59:48.664Z,63.30
2019-05-25T20:02:10.001Z,62.90
2019-05-25T20:04:31.205Z,63.10
2019-05-25T20:06:52.442Z,63.70
2019-05-25T20:09:13.854Z,63.70
2019-05-25T20:11:35.073Z,63.80
2019-05-25T20:13:56.260Z,64.50
2019-05-25T20:16:17.489Z,64.50
2019-05-25T20:18:38.872Z,64.10
2019-05-25T20:21:00.081Z,63.70
2019-05-25T20:23:21.301Z,64.40
2019-05-25T20:25:42.520Z,64.80
2019-05-25T20:28:03.846Z,65.00
2019-05-25T20:30:25.146Z,65.20
2019-05-25T20:32:46.422Z,67.10
2019-05-25T20:35:07.925Z,69.70
2019-05-25T20:37:29.144Z,69.70
2019-05-25T20:39:50.382Z,69.60
2019-05-25T20:42:14.786Z,69.90
2019-05-25T20:44:36.721Z,70.30
2019-05-25T20:46:57.962Z,70.40
2019-05-25T20:49:19.436Z,69.70
2019-05-25T20:51:40.737Z,69.60
2019-05-25T20:54:02.366Z,70.20
2019-05-25T20:56:23.614Z,69.40
2019-05-25T20:58:45.818Z,68.90
2019-05-25T21:01:07.070Z,68.70
2019-05-25T21:03:28.455Z,68.70
2019-05-25T21:05:51.022Z,68.00
2019-05-25T21:08:13.901Z,68.60
2019-05-25T21:10:35.307Z,68.20
2019-05-25T21:12:56.570Z,68.00
2019-05-25T21:15:19.114Z,67.80
2019-05-25T21:17:40.376Z,67.20
2019-05-25T21:20:03.636Z,67.70
2019-05-25T21:22:25.401Z,67.40
2019-05-25T21:24:46.739Z,66.90
2019-05-25T21:27:07.994Z,66.60
2019-05-25T21:29:35.922Z,66.00
2019-05-25T21:31:56.793Z,66.20
2019-05-25T21:34:18.138Z,65.90
2019-05-25T21:36:42.972Z,65.80
2019-05-25T21:39:07.498Z,65.40
2019-05-25T21:41:28.947Z,65.50
2019-05-25T21:43:50.341Z,65.70
2019-05-25T21:46:11.626Z,65.50
2019-05-25T21:48:32.960Z,65.30
2019-05-25T21:50:54.213Z,65.20
2019-05-25T21:53:15.545Z,65.00
2019-05-25T21:55:36.887Z,64.90
2019-05-25T21:57:58.105Z,65.20
2019-05-25T22:00:22.280Z,65.20
2019-05-25T22:02:45.598Z,65.50
2019-05-25T22:05:07.607Z,65.30
2019-05-25T22:07:28.993Z,65.40
2019-05-25T22:09:50.323Z,65.20
2019-05-25T22:12:11.574Z,65.60
2019-05-25T22:14:35.999Z,65.60
2019-05-25T22:16:57.237Z,65.80
2019-05-25T22:19:18.736Z,65.80
2019-05-25T22:21:40.198Z,67.00
2019-05-25T22:24:01.403Z,66.30
2019-05-25T22:26:22.634Z,66.30
2019-05-25T22:28:45.370Z,66.20
2019-05-25T22:31:06.813Z,66.10
2019-05-25T22:33:28.306Z,66.10
2019-05-25T22:35:49.701Z,65.70
2019-05-25T22:38:10.954Z,66.00
2019-05-25T22:40:32.447Z,65.60
2019-05-25T22:42:53.744Z,66.20
2019-05-25T22:45:15.227Z,65.80
2019-05-25T22:47:36.655Z,65.90
2019-05-25T22:49:57.884Z,65.70
2019-05-25T22:52:19.116Z,65.90
2019-05-25T22:54:41.545Z,65.70
2019-05-25T22:57:03.761Z,66.50
2019-05-25T22:59:25.018Z,66.80
2019-05-25T23:01:46.274Z,66.70
2019-05-25T23:04:07.510Z,66.60
2019-05-25T23:06:28.857Z,66.90
2019-05-25T23:08:50.228Z,67.20
2019-05-25T23:11:11.479Z,67.60
2019-05-25T23:13:32.691Z,67.70
2019-05-25T23:15:53.910Z,68.20
2019-05-25T23:18:15.152Z,68.10
2019-05-25T23:20:36.897Z,68.90
2019-05-25T23:22:58.231Z,68.80
2019-05-25T23:25:19.571Z,68.70
2019-05-25T23:27:40.791Z,68.50
2019-05-25T23:30:03.616Z,68.30
2019-05-25T23:32:25.166Z,69.80
2019-05-25T23:34:46.397Z,70.00
2019-05-25T23:37:14.844Z,69.50
2019-05-25T23:39:30.888Z,69.30
2019-05-25T23:41:52.101Z,69.30
2019-05-25T23:44:13.503Z,69.20
2019-05-25T23:46:34.736Z,69.50
2019-05-25T23:48:56.105Z,69.70
2019-05-25T23:51:17.344Z,71.00
2019-05-25T23:53:38.567Z,70.80
2019-05-25T23:55:59.785Z,70.50
2019-05-25T23:58:21.288Z,70.60
